createdAt,value
2023-01-03T00:01:27.311Z,6.70
2023-01-03T00:03:58.640Z,6.70
2023-01-03T00:06:27.679Z,6.70
2023-01-03T00:08:55.914Z,6.70
2023-01-03T00:11:46.727Z,6.80
2023-01-03T00:14:16.403Z,6.80
2023-01-03T00:16:43.164Z,6.80
2023-01-03T00:19:13.074Z,6.80
2023-01-03T00:21:41.157Z,6.80
2023-01-03T00:24:08.816Z,6.90
2023-01-03T00:26:36.841Z,6.80
2023-01-03T00:29:04.164Z,6.90
2023-01-03T00:31:30.836Z,6.80
2023-01-03T00:33:57.455Z,6.90
2023-01-03T00:36:24.207Z,6.80
2023-01-03T00:38:50.857Z,6.80
2023-01-03T00:41:19.068Z,6.90
2023-01-03T00:43:49.124Z,6.90
2023-01-03T00:46:17.368Z,6.90
2023-01-03T00:48:44.443Z,6.90
2023-01-03T00:51:23.403Z,6.90
2023-01-03T00:53:52.925Z,6.90
2023-01-03T00:56:21.194Z,6.90
2023-01-03T00:58:48.357Z,6.90
2023-01-03T01:01:17.818Z,7.00
2023-01-03T01:03:47.774Z,7.00
2023-01-03T01:06:26.895Z,7.00
2023-01-03T01:08:56.210Z,7.00
2023-01-03T01:11:23.459Z,7.00
2023-01-03T01:13:50.605Z,7.00
2023-01-03T01:16:20.988Z,7.00
2023-01-03T01:18:49.636Z,7.00
2023-01-03T01:21:24.876Z,7.10
2023-01-03T01:23:52.058Z,7.10
2023-01-03T01:26:20.335Z,7.10
2023-01-03T01:28:47.197Z,7.10
2023-01-03T01:31:16.431Z,7.10
2023-01-03T01:33:43.241Z,7.10
2023-01-03T01:36:18.628Z,7.10
2023-01-03T01:38:46.698Z,7.20
2023-01-03T01:41:36.285Z,7.20
2023-01-03T01:44:21.899Z,7.20
2023-01-03T01:46:48.930Z,7.20
2023-01-03T01:49:21.232Z,7.20
2023-01-03T01:51:48.015Z,7.20
2023-01-03T01:54:14.802Z,7.20
2023-01-03T01:56:44.531Z,7.10
2023-01-03T01:59:12.009Z,7.10
2023-01-03T02:01:40.540Z,7.10
2023-01-03T02:04:24.508Z,7.00
2023-01-03T02:06:52.146Z,7.00
2023-01-03T02:09:18.894Z,6.90
2023-01-03T02:12:13.301Z,6.90
2023-01-03T02:14:55.335Z,6.90
2023-01-03T02:17:43.736Z,6.90
2023-01-03T02:20:37.163Z,6.90
2023-01-03T02:23:25.873Z,6.90
2023-01-03T02:26:15.269Z,6.80
2023-01-03T02:29:19.469Z,6.80
2023-01-03T02:32:15.481Z,6.70
2023-01-03T02:34:53.232Z,6.70
2023-01-03T02:37:37.823Z,6.70
2023-01-03T02:40:23.728Z,6.70
2023-01-03T02:43:16.220Z,6.70
2023-01-03T02:46:01.359Z,6.60
2023-01-03T02:48:46.349Z,6.60
2023-01-03T02:51:18.246Z,6.60
2023-01-03T02:53:48.091Z,6.60
2023-01-03T02:56:19.797Z,6.60
2023-01-03T02:58:49.381Z,6.60
2023-01-03T03:01:17.148Z,6.70
2023-01-03T03:03:44.615Z,6.70
2023-01-03T03:06:34.381Z,6.70
2023-01-03T03:09:01.138Z,6.80
2023-01-03T03:11:48.218Z,6.80
2023-01-03T03:14:23.467Z,6.80
2023-01-03T03:16:52.024Z,6.90
2023-01-03T03:19:50.481Z,6.90
2023-01-03T03:22:49.088Z,7.00
2023-01-03T03:25:41.883Z,7.00
2023-01-03T03:28:30.338Z,7.10
2023-01-03T03:30:59.842Z,7.10
2023-01-03T03:33:28.214Z,7.10
2023-01-03T03:36:12.055Z,7.20
2023-01-03T03:38:44.171Z,7.20
2023-01-03T03:41:38.692Z,7.20
2023-01-03T03:44:40.964Z,7.20
2023-01-03T03:47:49.885Z,7.20
2023-01-03T03:50:22.579Z,7.20
2023-01-03T03:52:52.056Z,7.10
2023-01-03T03:55:35.853Z,7.20
2023-01-03T03:58:14.157Z,7.10
2023-01-03T04:00:42.426Z,7.10
2023-01-03T04:03:09.800Z,7.10
2023-01-03T04:05:41.087Z,7.10
2023-01-03T04:08:07.884Z,7.10
2023-01-03T04:10:37.953Z,7.10
2023-01-03T04:13:05.008Z,7.10
2023-01-03T04:15:31.713Z,7.10
2023-01-03T04:17:58.404Z,7.10
2023-01-03T04:20:25.315Z,7.00
2023-01-03T04:22:52.044Z,7.00
2023-01-03T04:25:18.887Z,7.00
2023-01-03T04:27:45.567Z,6.90
2023-01-03T04:30:12.831Z,6.90
2023-01-03T04:32:39.977Z,6.80
2023-01-03T04:35:07.215Z,6.80
2023-01-03T04:37:33.889Z,6.70
2023-01-03T04:40:00.602Z,6.70
2023-01-03T04:42:45.760Z,6.80
2023-01-03T04:45:12.562Z,6.80
2023-01-03T04:47:39.222Z,6.80
2023-01-03T04:50:06.278Z,6.80
2023-01-03T04:52:32.973Z,6.80
2023-01-03T04:54:59.669Z,6.80
2023-01-03T04:57:26.321Z,6.80
2023-01-03T04:59:52.987Z,6.80
2023-01-03T05:02:19.762Z,6.80
2023-01-03T05:04:46.572Z,6.90
2023-01-03T05:07:13.299Z,6.80
2023-01-03T05:09:39.981Z,6.90
2023-01-03T05:12:06.724Z,6.90
2023-01-03T05:14:33.420Z,6.90
2023-01-03T05:17:00.282Z,6.90
2023-01-03T05:19:27.002Z,6.90
2023-01-03T05:22:12.241Z,6.90
2023-01-03T05:24:57.540Z,7.00
2023-01-03T05:27:24.286Z,7.00
2023-01-03T05:29:52.670Z,7.00
2023-01-03T05:32:19.446Z,7.00
2023-01-03T05:34:46.532Z,7.00
2023-01-03T05:37:13.221Z,6.90
2023-01-03T05:39:39.860Z,6.90
2023-01-03T05:42:06.573Z,6.90
2023-01-03T05:44:33.961Z,7.00
2023-01-03T05:47:02.515Z,7.00
2023-01-03T05:49:29.194Z,6.90
2023-01-03T05:51:55.884Z,6.90
2023-01-03T05:54:22.645Z,6.90
2023-01-03T05:56:50.529Z,6.80
2023-01-03T05:59:17.305Z,6.80
2023-01-03T06:01:44.091Z,6.70
2023-01-03T06:04:10.918Z,6.70
2023-01-03T06:06:37.771Z,6.60
2023-01-03T06:09:04.440Z,6.50
2023-01-03T06:11:31.205Z,6.50
2023-01-03T06:13:57.982Z,6.40
2023-01-03T06:16:43.259Z,6.40
2023-01-03T06:19:09.964Z,6.40
2023-01-03T06:21:36.867Z,6.40
2023-01-03T06:24:03.930Z,6.50
2023-01-03T06:26:30.658Z,6.50
2023-01-03T06:28:57.329Z,6.60
2023-01-03T06:31:24.172Z,6.50
2023-01-03T06:33:50.941Z,6.50
2023-01-03T06:36:19.721Z,6.50
2023-01-03T06:38:46.967Z,6.50
2023-01-03T06:41:14.897Z,6.50
2023-01-03T06:43:42.056Z,6.50
2023-01-03T06:46:30.146Z,6.50
2023-01-03T06:49:16.158Z,6.50
2023-01-03T06:52:01.612Z,6.50
2023-01-03T06:54:30.590Z,6.50
2023-01-03T06:56:57.728Z,6.50
2023-01-03T06:59:24.627Z,6.50
2023-01-03T07:01:52.858Z,6.50
2023-01-03T07:04:20.551Z,6.50
2023-01-03T07:06:47.680Z,6.50
2023-01-03T07:09:14.460Z,6.50
2023-01-03T07:11:41.665Z,6.40
2023-01-03T07:14:09.884Z,6.40
2023-01-03T07:16:39.384Z,6.40
2023-01-03T07:19:07.351Z,6.40
2023-01-03T07:21:34.946Z,6.40
2023-01-03T07:24:03.757Z,6.30
2023-01-03T07:26:33.307Z,6.30
2023-01-03T07:29:01.311Z,6.30
2023-01-03T07:31:28.347Z,6.30
2023-01-03T07:33:55.125Z,6.30
2023-01-03T07:36:22.078Z,6.20
2023-01-03T07:38:48.733Z,6.20
2023-01-03T07:41:16.619Z,6.20
2023-01-03T07:43:45.937Z,6.20
2023-01-03T07:46:20.544Z,6.20
2023-01-03T07:48:49.184Z,6.20
2023-01-03T07:51:17.520Z,6.10
2023-01-03T07:53:44.726Z,6.10
2023-01-03T07:56:13.841Z,6.20
2023-01-03T07:58:44.278Z,6.20
2023-01-03T08:01:16.227Z,6.20
2023-01-03T08:03:43.633Z,6.20
2023-01-03T08:06:12.894Z,6.20
2023-01-03T08:08:40.150Z,6.20
2023-01-03T08:11:27.582Z,6.20
2023-01-03T08:13:54.268Z,6.20
2023-01-03T08:16:21.281Z,6.10
2023-01-03T08:18:48.110Z,6.20
2023-01-03T08:21:15.590Z,6.10
2023-01-03T08:23:42.849Z,6.20
2023-01-03T08:26:12.070Z,6.10
2023-01-03T08:28:39.631Z,6.10
2023-01-03T08:31:10.424Z,6.20
2023-01-03T08:33:41.933Z,6.20
2023-01-03T08:36:09.279Z,6.20
2023-01-03T08:38:40.255Z,6.20
2023-01-03T08:41:07.967Z,6.20
2023-01-03T08:43:36.734Z,6.20
2023-01-03T08:46:04.327Z,6.30
2023-01-03T08:48:30.963Z,6.30
2023-01-03T08:50:57.710Z,6.30
2023-01-03T08:53:24.564Z,6.30
2023-01-03T08:55:51.446Z,6.30
2023-01-03T08:58:18.468Z,6.30
2023-01-03T09:00:45.145Z,6.30
2023-01-03T09:03:12.180Z,6.30
2023-01-03T09:05:39.244Z,6.30
2023-01-03T09:08:06.085Z,6.40
2023-01-03T09:10:32.938Z,6.30
2023-01-03T09:13:01.719Z,6.30
2023-01-03T09:15:28.404Z,6.40
2023-01-03T09:17:55.066Z,6.40
2023-01-03T09:20:21.816Z,6.40
2023-01-03T09:22:48.624Z,6.40
2023-01-03T09:25:15.744Z,6.40
2023-01-03T09:27:47.354Z,6.40
2023-01-03T09:30:15.297Z,6.50
2023-01-03T09:32:42.195Z,6.50
2023-01-03T09:35:09.599Z,6.50
2023-01-03T09:37:36.302Z,6.50
2023-01-03T09:40:04.266Z,6.50
2023-01-03T09:42:49.627Z,6.50
2023-01-03T09:45:21.626Z,6.50
2023-01-03T09:47:48.351Z,6.50
2023-01-03T09:50:39.360Z,6.40
2023-01-03T09:53:40.559Z,6.40
2023-01-03T09:56:25.724Z,6.40
2023-01-03T09:59:14.685Z,6.40
2023-01-03T10:02:20.902Z,6.40
2023-01-03T10:05:11.310Z,6.50
2023-01-03T10:07:41.072Z,6.50
2023-01-03T10:10:35.112Z,6.60
2023-01-03T10:13:27.496Z,6.60
2023-01-03T10:16:30.987Z,6.80
2023-01-03T10:19:03.441Z,6.90
2023-01-03T10:21:42.245Z,7.10
2023-01-03T10:24:22.686Z,7.30
2023-01-03T10:26:52.403Z,7.50
2023-01-03T10:29:19.471Z,7.70
2023-01-03T10:32:09.209Z,7.80
2023-01-03T10:34:38.578Z,7.90
2023-01-03T10:37:31.690Z,8.00
2023-01-03T10:40:03.180Z,8.10
2023-01-03T10:42:32.771Z,8.10
2023-01-03T10:45:15.079Z,8.20
2023-01-03T10:47:42.136Z,8.20
2023-01-03T10:50:22.781Z,8.20
2023-01-03T10:53:05.954Z,8.20
2023-01-03T10:55:34.420Z,8.30
2023-01-03T10:58:20.596Z,8.30
2023-01-03T11:00:47.496Z,8.40
2023-01-03T11:03:20.241Z,8.40
2023-01-03T11:05:49.232Z,8.40
2023-01-03T11:08:41.390Z,8.40
2023-01-03T11:11:28.887Z,8.50
2023-01-03T11:14:08.902Z,8.50
2023-01-03T11:16:35.940Z,8.50
2023-01-03T11:19:05.906Z,8.60
2023-01-03T11:21:42.143Z,8.60
2023-01-03T11:24:35.638Z,8.60
2023-01-03T11:27:23.983Z,8.60
2023-01-03T11:30:03.258Z,8.60
2023-01-03T11:32:48.624Z,8.70
2023-01-03T11:35:51.099Z,8.60
2023-01-03T11:38:41.074Z,8.60
2023-01-03T11:41:33.049Z,8.70
2023-01-03T11:44:28.574Z,8.70
2023-01-03T11:47:15.529Z,8.70
2023-01-03T11:49:53.664Z,8.70
2023-01-03T11:52:39.084Z,8.70
2023-01-03T11:55:30.540Z,8.70
2023-01-03T11:58:20.807Z,8.70
2023-01-03T12:01:25.003Z,8.70
2023-01-03T12:04:12.325Z,8.80
2023-01-03T12:07:37.396Z,8.80
2023-01-03T12:10:22.269Z,8.80
2023-01-03T12:13:03.841Z,8.80
2023-01-03T12:15:39.882Z,8.80
2023-01-03T12:18:22.959Z,8.80
2023-01-03T12:20:56.186Z,8.90
2023-01-03T12:23:28.683Z,8.90
2023-01-03T12:25:57.804Z,9.00
2023-01-03T12:28:28.571Z,9.10
2023-01-03T12:30:59.280Z,9.10
2023-01-03T12:33:33.598Z,9.20
2023-01-03T12:36:26.711Z,9.30
2023-01-03T12:39:15.170Z,9.40
2023-01-03T12:42:01.226Z,9.40
2023-01-03T12:44:48.269Z,9.40
2023-01-03T12:47:29.518Z,9.40
2023-01-03T12:50:01.171Z,9.40
2023-01-03T12:52:28.699Z,9.40
2023-01-03T12:55:28.723Z,9.40
2023-01-03T12:58:27.683Z,9.50
2023-01-03T13:01:34.527Z,9.50
2023-01-03T13:04:23.907Z,9.50
2023-01-03T13:07:07.959Z,9.40
2023-01-03T13:09:53.821Z,9.40
2023-01-03T13:12:26.657Z,9.40
2023-01-03T13:15:03.903Z,9.30
2023-01-03T13:17:32.779Z,9.30
2023-01-03T13:20:14.972Z,9.30
2023-01-03T13:22:56.199Z,9.40
2023-01-03T13:25:36.536Z,9.40
2023-01-03T13:28:19.839Z,9.40
2023-01-03T13:30:46.788Z,9.30
2023-01-03T13:33:16.696Z,9.20
2023-01-03T13:35:46.259Z,9.20
2023-01-03T13:38:31.752Z,9.10
2023-01-03T13:41:19.810Z,9.10
2023-01-03T13:43:50.875Z,9.00
2023-01-03T13:46:29.078Z,9.00
2023-01-03T13:49:02.076Z,9.00
2023-01-03T13:51:40.982Z,9.00
2023-01-03T13:54:13.834Z,9.00
2023-01-03T13:56:43.534Z,9.00
2023-01-03T13:59:19.172Z,8.90
2023-01-03T14:02:10.624Z,8.90
2023-01-03T14:05:11.899Z,8.80
2023-01-03T14:08:03.928Z,8.70
2023-01-03T14:11:01.755Z,8.60
2023-01-03T14:13:44.040Z,8.50
2023-01-03T14:16:23.320Z,8.50
2023-01-03T14:19:12.076Z,8.50
2023-01-03T14:22:28.085Z,8.40
2023-01-03T14:24:57.431Z,8.30
2023-01-03T14:27:44.588Z,8.20
2023-01-03T14:30:23.887Z,8.30
2023-01-03T14:32:50.831Z,8.30
2023-01-03T14:35:36.547Z,8.30
2023-01-03T14:38:07.043Z,8.20
2023-01-03T14:40:34.129Z,8.20
2023-01-03T14:43:04.791Z,8.20
2023-01-03T14:45:31.597Z,8.20
2023-01-03T14:47:58.383Z,8.20
2023-01-03T14:50:29.474Z,8.20
2023-01-03T14:52:58.428Z,8.10
2023-01-03T14:55:28.430Z,8.10
2023-01-03T14:57:55.719Z,8.00
2023-01-03T15:00:34.780Z,8.00
2023-01-03T15:03:02.794Z,7.90
2023-01-03T15:05:32.218Z,7.90
2023-01-03T15:08:13.988Z,7.80
2023-01-03T15:10:53.208Z,7.80
2023-01-03T15:13:35.296Z,7.80
2023-01-03T15:16:05.476Z,7.70
2023-01-03T15:18:34.516Z,7.70
2023-01-03T15:21:02.616Z,7.60
2023-01-03T15:23:46.648Z,7.60
2023-01-03T15:26:37.860Z,7.40
2023-01-03T15:29:24.874Z,7.40
2023-01-03T15:32:01.139Z,7.30
2023-01-03T15:34:33.818Z,7.20
2023-01-03T15:37:16.680Z,7.20
2023-01-03T15:39:47.373Z,7.00
2023-01-03T15:42:50.228Z,6.90
2023-01-03T15:45:27.944Z,6.80
2023-01-03T15:47:59.853Z,6.70
2023-01-03T15:50:40.542Z,6.60
2023-01-03T15:53:30.145Z,6.60
2023-01-03T15:56:03.961Z,6.50
2023-01-03T15:58:30.915Z,6.40
2023-01-03T16:00:59.388Z,6.40
2023-01-03T16:03:29.164Z,6.30
2023-01-03T16:05:56.419Z,6.30
2023-01-03T16:08:27.774Z,6.20
2023-01-03T16:10:54.872Z,6.20
2023-01-03T16:13:23.283Z,6.20
2023-01-03T16:15:50.812Z,6.10
2023-01-03T16:18:22.248Z,6.10
2023-01-03T16:20:49.329Z,6.10
2023-01-03T16:23:24.815Z,6.10
2023-01-03T16:25:51.852Z,6.10
2023-01-03T16:28:18.530Z,6.10
2023-01-03T16:30:45.469Z,6.10
2023-01-03T16:33:20.437Z,6.00
2023-01-03T16:35:47.995Z,6.00
2023-01-03T16:38:15.423Z,6.00
2023-01-03T16:40:42.467Z,6.00
2023-01-03T16:43:09.677Z,5.90
2023-01-03T16:45:43.477Z,5.90
2023-01-03T16:48:17.609Z,5.80
2023-01-03T16:50:46.383Z,5.80
2023-01-03T16:53:25.216Z,5.80
2023-01-03T16:55:54.599Z,5.80
2023-01-03T16:58:21.590Z,5.80
2023-01-03T17:00:48.345Z,5.80
2023-01-03T17:03:15.126Z,5.70
2023-01-03T17:05:41.926Z,5.70
2023-01-03T17:08:34.103Z,5.70
2023-01-03T17:11:01.062Z,5.80
2023-01-03T17:13:31.775Z,5.80
2023-01-03T17:15:59.433Z,5.90
2023-01-03T17:18:31.500Z,5.90
2023-01-03T17:21:01.117Z,6.00
2023-01-03T17:23:28.932Z,6.00
2023-01-03T17:25:56.351Z,5.90
2023-01-03T17:28:23.463Z,5.90
2023-01-03T17:30:54.289Z,5.90
2023-01-03T17:33:20.988Z,5.80
2023-01-03T17:35:48.137Z,5.80
2023-01-03T17:38:32.099Z,5.80
2023-01-03T17:40:58.838Z,5.80
2023-01-03T17:43:25.701Z,5.80
2023-01-03T17:46:16.111Z,5.70
2023-01-03T17:49:06.156Z,5.70
2023-01-03T17:51:32.952Z,5.70
2023-01-03T17:53:59.643Z,5.70
2023-01-03T17:56:26.864Z,5.70
2023-01-03T17:58:56.510Z,5.70
2023-01-03T18:01:23.749Z,5.70
2023-01-03T18:03:50.708Z,5.60
2023-01-03T18:06:21.375Z,5.60
2023-01-03T18:08:48.545Z,5.60
2023-01-03T18:11:20.679Z,5.60
2023-01-03T18:13:48.801Z,5.60
2023-01-03T18:16:21.011Z,5.50
2023-01-03T18:18:48.317Z,5.50
2023-01-03T18:21:22.601Z,5.50
2023-01-03T18:24:01.576Z,5.50
2023-01-03T18:26:37.189Z,5.50
2023-01-03T18:29:06.272Z,5.40
2023-01-03T18:31:33.224Z,5.40
2023-01-03T18:34:04.154Z,5.40
2023-01-03T18:36:36.183Z,5.50
2023-01-03T18:39:06.499Z,5.40
2023-01-03T18:41:34.191Z,5.40
2023-01-03T18:44:01.385Z,5.40
2023-01-03T18:46:28.603Z,5.40
2023-01-03T18:48:55.448Z,5.40
2023-01-03T18:51:24.618Z,5.40
2023-01-03T18:53:54.550Z,5.40
2023-01-03T18:56:30.096Z,5.40
2023-01-03T18:59:21.372Z,5.40
2023-01-03T19:01:48.484Z,5.30
2023-01-03T19:04:15.365Z,5.30
2023-01-03T19:06:45.276Z,5.40
2023-01-03T19:09:29.358Z,5.30
2023-01-03T19:11:56.516Z,5.30
2023-01-03T19:14:23.202Z,5.30
2023-01-03T19:16:50.052Z,5.30
2023-01-03T19:19:16.891Z,5.30
2023-01-03T19:21:46.564Z,5.30
2023-01-03T19:24:19.734Z,5.30
2023-01-03T19:26:54.232Z,5.20
2023-01-03T19:29:23.852Z,5.20
2023-01-03T19:31:53.258Z,5.20
2023-01-03T19:34:23.196Z,5.20
2023-01-03T19:36:51.115Z,5.20
2023-01-03T19:39:24.041Z,5.10
2023-01-03T19:42:15.601Z,5.20
2023-01-03T19:44:43.024Z,5.10
2023-01-03T19:47:13.192Z,5.10
2023-01-03T19:49:40.100Z,5.10
2023-01-03T19:52:06.992Z,5.10
2023-01-03T19:54:33.745Z,5.00
2023-01-03T19:57:03.679Z,5.00
2023-01-03T19:59:36.524Z,5.00
2023-01-03T20:02:28.588Z,5.00
2023-01-03T20:04:55.519Z,5.00
2023-01-03T20:07:22.527Z,5.00
2023-01-03T20:09:49.339Z,5.00
2023-01-03T20:12:22.076Z,5.00
2023-01-03T20:14:50.915Z,5.00
2023-01-03T20:17:22.906Z,5.00
2023-01-03T20:19:50.228Z,5.00
2023-01-03T20:22:44.969Z,5.00
2023-01-03T20:25:18.718Z,5.00
2023-01-03T20:27:46.589Z,5.00
2023-01-03T20:30:18.516Z,5.00
2023-01-03T20:32:45.411Z,5.10
2023-01-03T20:36:06.297Z,5.00
2023-01-03T20:38:01.474Z,5.00
2023-01-03T20:40:28.233Z,5.00
2023-01-03T20:42:55.409Z,5.00
2023-01-03T20:45:22.196Z,5.00
2023-01-03T20:47:52.321Z,5.00
2023-01-03T20:50:22.878Z,5.00
2023-01-03T20:52:50.099Z,5.00
2023-01-03T20:55:18.996Z,5.00
2023-01-03T20:57:46.000Z,5.00
2023-01-03T21:00:25.048Z,5.00
2023-01-03T21:02:52.930Z,5.00
2023-01-03T21:05:20.564Z,5.00
2023-01-03T21:08:05.816Z,5.00
2023-01-03T21:10:38.653Z,5.00
2023-01-03T21:13:06.056Z,5.00
2023-01-03T21:15:33.437Z,5.00
2023-01-03T21:18:00.319Z,5.00
2023-01-03T21:20:28.773Z,5.00
2023-01-03T21:22:55.458Z,4.90
2023-01-03T21:25:27.903Z,4.90
2023-01-03T21:27:54.698Z,4.90
2023-01-03T21:30:23.375Z,4.90
2023-01-03T21:32:50.113Z,4.80
2023-01-03T21:35:19.860Z,4.80
2023-01-03T21:37:47.379Z,4.80
2023-01-03T21:40:17.386Z,4.80
2023-01-03T21:43:04.164Z,4.80
2023-01-03T21:45:41.428Z,4.80
2023-01-03T21:48:11.428Z,4.90
2023-01-03T21:50:40.185Z,4.90
2023-01-03T21:53:07.092Z,4.90
2023-01-03T21:55:34.040Z,4.90
2023-01-03T21:58:01.287Z,5.00
2023-01-03T22:00:28.236Z,5.00
2023-01-03T22:03:13.570Z,5.00
2023-01-03T22:05:40.367Z,5.00
2023-01-03T22:08:07.393Z,5.00
2023-01-03T22:10:34.647Z,4.90
2023-01-03T22:13:04.277Z,4.90
2023-01-03T22:15:31.239Z,4.90
2023-01-03T22:17:57.900Z,4.90
2023-01-03T22:20:25.989Z,4.90
2023-01-03T22:22:53.555Z,4.80
2023-01-03T22:25:23.776Z,4.80
2023-01-03T22:27:54.368Z,4.80
2023-01-03T22:30:21.337Z,4.80
2023-01-03T22:32:48.273Z,4.80
2023-01-03T22:35:16.367Z,4.80
2023-01-03T22:37:43.203Z,4.80
2023-01-03T22:40:15.757Z,4.90
2023-01-03T22:42:42.997Z,4.90
2023-01-03T22:45:11.351Z,4.90
2023-01-03T22:47:38.520Z,5.00
2023-01-03T22:50:06.767Z,5.00
2023-01-03T22:52:34.502Z,5.10
2023-01-03T22:55:01.324Z,5.20
2023-01-03T22:57:28.151Z,5.20
2023-01-03T22:59:54.895Z,5.30
2023-01-03T23:02:28.113Z,5.40
2023-01-03T23:04:55.749Z,5.40
2023-01-03T23:07:22.498Z,5.50
2023-01-03T23:09:49.202Z,5.50
2023-01-03T23:12:34.399Z,5.40
2023-01-03T23:15:01.013Z,5.50
2023-01-03T23:17:46.285Z,5.50
2023-01-03T23:20:13.320Z,5.50
2023-01-03T23:22:40.064Z,5.50
2023-01-03T23:25:07.071Z,5.50
2023-01-03T23:27:33.872Z,5.60
2023-01-03T23:30:00.625Z,5.60
2023-01-03T23:32:27.309Z,5.60
2023-01-03T23:34:54.369Z,5.60
2023-01-03T23:37:21.041Z,5.60
2023-01-03T23:39:48.086Z,5.60
2023-01-03T23:42:14.879Z,5.60
2023-01-03T23:44:41.554Z,5.60
2023-01-03T23:47:12.518Z,5.60
2023-01-03T23:49:39.853Z,5.50
2023-01-03T23:52:06.588Z,5.50
2023-01-03T23:54:33.406Z,5.50
2023-01-03T23:57:00.696Z,5.50
2023-01-03T23:59:27.392Z,5.50
